createdAt,value
2023-01-18T00:00:40.455Z,12.60
2023-01-18T00:03:13.229Z,14.10
2023-01-18T00:05:42.297Z,11.75
2023-01-18T00:08:11.092Z,10.40
2023-01-18T00:10:40.041Z,11.45
2023-01-18T00:13:09.671Z,12.40
2023-01-18T00:15:39.385Z,14.75
2023-01-18T00:18:07.534Z,12.10
2023-01-18T00:20:38.419Z,11.48
2023-01-18T00:23:06.634Z,11.25
2023-01-18T00:25:34.729Z,10.75
2023-01-18T00:28:02.917Z,11.82
2023-01-18T00:30:32.417Z,14.63
2023-01-18T00:33:01.085Z,12.88
2023-01-18T00:35:29.338Z,11.52
2023-01-18T00:37:57.477Z,13.68
2023-01-18T00:40:28.971Z,11.45
2023-01-18T00:43:14.687Z,11.18
2023-01-18T00:45:44.800Z,13.75
2023-01-18T00:48:12.914Z,14.80
2023-01-18T00:50:41.038Z,10.98
2023-01-18T00:53:09.076Z,12.20
2023-01-18T00:55:37.157Z,12.85
2023-01-18T00:58:05.404Z,12.20
2023-01-18T01:00:33.856Z,11.77
2023-01-18T01:03:04.033Z,11.38
2023-01-18T01:05:49.851Z,13.63
2023-01-18T01:08:18.318Z,10.63
2023-01-18T01:10:47.450Z,12.70
2023-01-18T01:13:34.756Z,11.57
2023-01-18T01:16:24.084Z,12.32
2023-01-18T01:19:11.645Z,12.60
2023-01-18T01:21:57.598Z,11.05
2023-01-18T01:24:43.426Z,12.30
2023-01-18T01:27:11.908Z,12.18
2023-01-18T01:33:46.283Z,11.68
2023-01-18T01:36:33.589Z,11.35
2023-01-18T01:39:01.442Z,12.45
2023-01-18T01:41:31.230Z,12.15
2023-01-18T01:44:01.010Z,11.50
2023-01-18T01:46:39.600Z,9.63
2023-01-18T01:49:11.239Z,12.93
2023-01-18T01:51:42.833Z,11.05
2023-01-18T01:54:14.728Z,13.25
2023-01-18T01:56:44.618Z,11.85
2023-01-18T01:59:12.575Z,11.52
2023-01-18T02:01:44.453Z,12.60
2023-01-18T02:04:13.144Z,11.52
2023-01-18T02:06:42.316Z,12.75
2023-01-18T02:09:13.560Z,11.52
2023-01-18T02:11:42.937Z,12.07
2023-01-18T02:14:14.296Z,13.65
2023-01-18T02:16:56.134Z,10.88
2023-01-18T02:19:48.756Z,10.52
2023-01-18T02:22:31.590Z,11.40
2023-01-18T02:25:22.867Z,11.32
2023-01-18T02:27:56.830Z,11.43
2023-01-18T02:30:33.345Z,11.32
2023-01-18T02:33:08.759Z,9.95
2023-01-18T02:35:45.963Z,12.15
2023-01-18T02:38:16.638Z,11.00
2023-01-18T02:41:03.246Z,10.00
2023-01-18T02:43:50.818Z,11.07
2023-01-18T02:46:33.683Z,11.55
2023-01-18T02:49:08.585Z,10.40
2023-01-18T02:51:37.082Z,13.70
2023-01-18T02:54:09.457Z,12.05
2023-01-18T02:56:42.220Z,11.95
2023-01-18T02:59:13.783Z,10.63
2023-01-18T03:01:46.102Z,16.48
2023-01-18T03:04:19.238Z,13.00
2023-01-18T03:09:21.422Z,11.15
2023-01-18T03:11:56.392Z,12.00
2023-01-18T03:14:32.829Z,12.23
2023-01-18T03:17:07.481Z,13.15
2023-01-18T03:20:00.748Z,12.20
2023-01-18T03:22:50.168Z,13.30
2023-01-18T03:25:21.584Z,13.02
2023-01-18T03:28:10.912Z,12.70
2023-01-18T03:30:59.261Z,11.10
2023-01-18T03:33:47.619Z,14.07
2023-01-18T03:36:20.527Z,10.05
2023-01-18T03:38:51.322Z,12.27
2023-01-18T03:41:20.629Z,12.65
2023-01-18T03:43:50.762Z,11.02
2023-01-18T03:46:20.858Z,11.35
2023-01-18T03:48:50.212Z,12.43
2023-01-18T03:51:26.098Z,12.48
2023-01-18T03:54:02.083Z,12.80
2023-01-18T03:56:38.820Z,13.93
2023-01-18T03:59:08.438Z,12.88
2023-01-18T04:01:36.975Z,10.65
2023-01-18T04:04:06.541Z,11.00
2023-01-18T04:06:34.483Z,12.77
2023-01-18T04:09:02.313Z,11.77
2023-01-18T04:11:30.153Z,10.60
2023-01-18T04:13:58.038Z,16.17
2023-01-18T04:16:25.807Z,14.73
2023-01-18T04:18:53.606Z,11.77
2023-01-18T04:21:22.791Z,10.70
2023-01-18T04:23:50.688Z,11.35
2023-01-18T04:26:19.287Z,12.95
2023-01-18T04:28:47.300Z,11.98
2023-01-18T04:31:15.168Z,13.18
2023-01-18T04:33:43.227Z,11.63
2023-01-18T04:36:11.039Z,13.15
2023-01-18T04:38:40.210Z,13.27
2023-01-18T04:41:08.090Z,10.88
2023-01-18T04:43:36.610Z,11.68
2023-01-18T04:46:04.587Z,11.88
2023-01-18T04:48:32.459Z,12.30
2023-01-18T04:51:00.234Z,11.73
2023-01-18T04:53:28.161Z,12.23
2023-01-18T04:55:58.760Z,14.55
2023-01-18T04:58:26.613Z,10.82
2023-01-18T05:00:54.445Z,12.63
2023-01-18T05:03:22.360Z,11.20
2023-01-18T05:05:50.136Z,13.77
2023-01-18T05:08:18.365Z,13.32
2023-01-18T05:10:46.309Z,12.77
2023-01-18T05:13:15.535Z,13.60
2023-01-18T05:15:43.288Z,14.25
2023-01-18T05:18:11.201Z,10.98
2023-01-18T05:20:39.023Z,12.95
2023-01-18T05:23:10.938Z,15.40
2023-01-18T05:25:39.790Z,12.68
2023-01-18T05:28:08.772Z,13.43
2023-01-18T05:30:39.862Z,12.77
2023-01-18T05:33:07.735Z,13.65
2023-01-18T05:35:35.757Z,12.65
2023-01-18T05:38:03.702Z,12.48
2023-01-18T05:40:31.514Z,14.30
2023-01-18T05:42:59.754Z,11.07
2023-01-18T05:45:27.818Z,14.40
2023-01-18T05:47:57.020Z,14.15
2023-01-18T05:50:24.773Z,12.82
2023-01-18T05:52:52.577Z,12.48
2023-01-18T05:55:20.347Z,15.00
2023-01-18T05:57:48.690Z,14.50
2023-01-18T06:00:16.911Z,13.70
2023-01-18T06:02:44.695Z,13.05
2023-01-18T06:05:13.863Z,13.60
2023-01-18T06:07:42.200Z,11.52
2023-01-18T06:10:11.613Z,11.95
2023-01-18T06:12:41.997Z,15.23
2023-01-18T06:15:11.835Z,12.98
2023-01-18T06:17:39.870Z,15.65
2023-01-18T06:20:09.009Z,14.13
2023-01-18T06:22:38.186Z,16.00
2023-01-18T06:25:07.048Z,16.00
2023-01-18T06:27:34.909Z,14.50
2023-01-18T06:30:04.877Z,18.05
2023-01-18T06:32:32.816Z,14.15
2023-01-18T06:35:00.689Z,16.20
2023-01-18T06:37:28.458Z,12.48
2023-01-18T06:39:57.603Z,17.63
2023-01-18T06:42:25.447Z,14.05
2023-01-18T06:44:53.211Z,13.23
2023-01-18T06:47:21.133Z,13.55
2023-01-18T06:49:48.950Z,13.50
2023-01-18T06:52:17.983Z,13.15
2023-01-18T06:54:45.753Z,13.98
2023-01-18T06:57:15.649Z,13.73
2023-01-18T06:59:43.406Z,12.88
2023-01-18T07:02:15.226Z,17.42
2023-01-18T07:04:45.298Z,14.77
2023-01-18T07:07:13.254Z,14.88
2023-01-18T07:09:41.069Z,14.80
2023-01-18T07:12:09.359Z,13.10
2023-01-18T07:14:38.547Z,13.57
2023-01-18T07:17:06.320Z,15.60
2023-01-18T07:19:34.102Z,14.32
2023-01-18T07:22:02.203Z,16.88
2023-01-18T07:24:31.710Z,16.63
2023-01-18T07:27:00.591Z,14.20
2023-01-18T07:29:28.817Z,16.20
2023-01-18T07:31:58.379Z,15.23
2023-01-18T07:34:26.194Z,17.17
2023-01-18T07:36:54.317Z,14.43
2023-01-18T07:39:22.113Z,13.23
2023-01-18T07:41:49.951Z,14.38
2023-01-18T07:44:18.999Z,13.55
2023-01-18T07:46:46.790Z,14.35
2023-01-18T07:49:15.935Z,14.25
2023-01-18T07:51:43.784Z,14.55
2023-01-18T07:54:11.614Z,13.27
2023-01-18T07:56:40.320Z,14.65
2023-01-18T07:59:08.434Z,12.82
2023-01-18T08:01:36.408Z,14.27
2023-01-18T08:04:05.224Z,14.63
2023-01-18T08:06:34.500Z,13.07
2023-01-18T08:09:02.413Z,13.18
2023-01-18T08:11:30.308Z,15.70
2023-01-18T08:13:58.152Z,15.45
2023-01-18T08:16:26.814Z,14.48
2023-01-18T08:18:54.629Z,15.75
2023-01-18T08:21:22.399Z,16.73
2023-01-18T08:23:54.195Z,17.92
2023-01-18T08:26:22.139Z,14.75
2023-01-18T08:28:49.900Z,14.02
2023-01-18T08:31:21.555Z,17.45
2023-01-18T08:33:50.906Z,16.63
2023-01-18T08:36:21.937Z,16.02
2023-01-18T08:38:52.098Z,16.70
2023-01-18T08:41:20.645Z,15.85
2023-01-18T08:43:50.852Z,16.00
2023-01-18T08:46:22.654Z,14.45
2023-01-18T08:48:53.042Z,16.33
2023-01-18T08:51:22.961Z,14.43
2023-01-18T08:53:54.223Z,16.13
2023-01-18T08:56:22.286Z,13.77
2023-01-18T08:58:52.070Z,16.08
2023-01-18T09:01:20.500Z,13.85
2023-01-18T09:03:50.459Z,15.35
2023-01-18T09:06:18.685Z,15.48
2023-01-18T09:08:48.592Z,15.77
2023-01-18T09:11:19.042Z,13.80
2023-01-18T09:14:00.194Z,14.57
2023-01-18T09:16:28.681Z,16.67
2023-01-18T09:18:56.681Z,14.23
2023-01-18T09:21:25.146Z,16.92
2023-01-18T09:23:52.946Z,15.85
2023-01-18T09:26:22.204Z,18.13
2023-01-18T09:28:55.592Z,19.15
2023-01-18T09:31:25.394Z,15.98
2023-01-18T09:33:54.356Z,16.02
2023-01-18T09:36:26.943Z,18.77
2023-01-18T09:41:33.079Z,16.42
2023-01-18T09:44:03.853Z,16.52
2023-01-18T09:46:35.874Z,19.42
2023-01-18T09:49:06.145Z,14.53
2023-01-18T09:51:43.601Z,15.38
2023-01-18T09:54:21.529Z,15.75
2023-01-18T09:56:58.832Z,14.32
2023-01-18T09:59:35.288Z,15.88
2023-01-18T10:02:04.658Z,16.77
2023-01-18T10:04:38.677Z,16.20
2023-01-18T10:07:09.665Z,17.20
2023-01-18T10:09:41.789Z,15.88
2023-01-18T10:12:23.622Z,16.87
2023-01-18T10:14:56.504Z,16.45
2023-01-18T10:17:28.733Z,16.30
2023-01-18T10:19:56.590Z,14.37
2023-01-18T10:22:30.177Z,15.63
2023-01-18T10:25:03.519Z,13.63
2023-01-18T10:27:52.881Z,15.00
2023-01-18T10:30:33.218Z,18.27
2023-01-18T10:33:03.655Z,21.52
2023-01-18T10:35:35.594Z,20.52
2023-01-18T10:38:08.275Z,19.42
2023-01-18T10:40:37.284Z,17.67
2023-01-18T10:43:12.243Z,21.42
2023-01-18T10:45:40.151Z,14.85
2023-01-18T10:48:29.002Z,16.88
2023-01-18T10:50:58.676Z,16.10
2023-01-18T10:53:31.029Z,17.20
2023-01-18T10:56:03.519Z,18.92
2023-01-18T10:58:41.658Z,15.75
2023-01-18T11:01:17.050Z,17.67
2023-01-18T11:03:48.618Z,17.95
2023-01-18T11:06:17.250Z,17.42
2023-01-18T11:08:45.364Z,16.48
2023-01-18T11:11:19.664Z,15.57
2023-01-18T11:13:50.984Z,17.88
2023-01-18T11:16:20.931Z,15.15
2023-01-18T11:19:02.998Z,17.80
2023-01-18T11:21:45.560Z,17.90
2023-01-18T11:24:17.860Z,15.50
2023-01-18T11:26:55.758Z,16.85
2023-01-18T11:29:31.189Z,18.08
2023-01-18T11:32:03.728Z,18.70
2023-01-18T11:34:33.765Z,17.35
2023-01-18T11:37:04.128Z,15.27
2023-01-18T11:39:34.432Z,17.13
2023-01-18T11:42:22.005Z,16.48
2023-01-18T11:45:02.060Z,14.85
2023-01-18T11:47:37.121Z,15.20
2023-01-18T11:50:22.489Z,14.90
2023-01-18T11:52:54.644Z,17.15
2023-01-18T11:55:31.200Z,16.10
2023-01-18T11:58:00.739Z,16.95
2023-01-18T12:00:43.758Z,15.00
2023-01-18T12:03:49.004Z,16.58
2023-01-18T12:06:29.102Z,15.40
2023-01-18T12:09:09.070Z,14.70
2023-01-18T12:11:50.092Z,15.85
2023-01-18T12:14:37.745Z,15.27
2023-01-18T12:17:25.245Z,14.30
2023-01-18T12:20:10.039Z,15.13
2023-01-18T12:23:22.467Z,15.73
2023-01-18T12:26:15.211Z,14.25
2023-01-18T12:29:00.074Z,15.15
2023-01-18T12:31:46.542Z,13.27
2023-01-18T12:34:20.526Z,14.48
2023-01-18T12:37:13.376Z,13.80
2023-01-18T12:40:01.753Z,14.15
2023-01-18T12:42:44.615Z,14.77
2023-01-18T12:45:22.343Z,14.27
2023-01-18T12:48:02.246Z,13.85
2023-01-18T12:50:35.544Z,12.90
2023-01-18T12:53:07.836Z,12.07
2023-01-18T12:55:39.766Z,13.80
2023-01-18T12:58:09.714Z,12.68
2023-01-18T13:00:40.444Z,14.15
2023-01-18T13:03:14.227Z,11.15
2023-01-18T13:05:52.515Z,12.23
2023-01-18T13:08:30.689Z,8.70
2023-01-18T13:11:06.762Z,9.48
2023-01-18T13:13:36.166Z,10.23
2023-01-18T13:16:17.461Z,9.45
2023-01-18T13:18:54.666Z,8.95
2023-01-18T13:21:35.613Z,10.80
2023-01-18T13:24:12.044Z,8.80
2023-01-18T13:26:40.200Z,7.22
2023-01-18T13:29:17.253Z,8.25
2023-01-18T13:31:45.928Z,7.78
2023-01-18T13:34:28.620Z,10.05
2023-01-18T13:37:13.344Z,6.25
2023-01-18T13:39:48.087Z,6.57
2023-01-18T13:42:34.138Z,7.43
2023-01-18T13:45:15.855Z,6.78
2023-01-18T13:47:52.740Z,7.75
2023-01-18T13:50:45.174Z,8.07
2023-01-18T13:53:29.530Z,6.65
2023-01-18T13:56:27.517Z,9.70
2023-01-18T13:59:17.550Z,8.77
2023-01-18T14:01:49.770Z,7.95
2023-01-18T14:04:25.411Z,7.70
2023-01-18T14:06:54.420Z,6.95
2023-01-18T14:09:36.209Z,9.75
2023-01-18T14:12:04.913Z,7.10
2023-01-18T14:14:35.356Z,7.40
2023-01-18T14:17:14.223Z,6.78
2023-01-18T14:20:05.272Z,7.28
2023-01-18T14:22:43.729Z,8.93
2023-01-18T14:25:35.633Z,6.30
2023-01-18T14:28:10.234Z,5.15
2023-01-18T14:30:41.050Z,7.32
2023-01-18T14:33:15.493Z,6.55
2023-01-18T14:35:52.751Z,7.25
2023-01-18T14:38:21.472Z,7.72
2023-01-18T14:40:53.664Z,8.20
2023-01-18T14:43:28.130Z,9.00
2023-01-18T14:46:00.421Z,5.65
2023-01-18T14:48:31.551Z,8.07
2023-01-18T14:51:00.616Z,7.63
2023-01-18T14:53:34.422Z,6.25
2023-01-18T14:56:07.191Z,8.77
2023-01-18T14:58:38.968Z,7.22
2023-01-18T15:01:09.370Z,5.85
2023-01-18T15:03:37.593Z,8.25
2023-01-18T15:06:13.850Z,6.72
2023-01-18T15:08:43.456Z,6.45
2023-01-18T15:11:14.450Z,6.55
2023-01-18T15:13:49.044Z,6.82
2023-01-18T15:16:20.111Z,6.80
2023-01-18T15:18:49.696Z,7.95
2023-01-18T15:21:21.841Z,6.30
2023-01-18T15:23:52.500Z,8.00
2023-01-18T15:26:37.589Z,9.25
2023-01-18T15:29:15.139Z,7.50
2023-01-18T15:31:48.529Z,7.78
2023-01-18T15:34:17.954Z,8.57
2023-01-18T15:36:46.256Z,7.65
2023-01-18T15:39:14.548Z,7.28
2023-01-18T15:41:45.076Z,6.90
2023-01-18T15:44:35.698Z,8.00
2023-01-18T15:47:14.428Z,7.32
2023-01-18T15:49:45.120Z,8.45
2023-01-18T15:52:13.060Z,7.53
2023-01-18T15:54:41.188Z,6.78
2023-01-18T15:57:18.638Z,7.40
2023-01-18T15:59:47.582Z,7.38
2023-01-18T16:02:19.816Z,7.18
2023-01-18T16:04:48.091Z,8.13
2023-01-18T16:07:35.718Z,7.32
2023-01-18T16:10:30.565Z,8.02
2023-01-18T16:13:37.358Z,8.48
2023-01-18T16:16:24.015Z,9.48
2023-01-18T16:19:01.076Z,8.05
2023-01-18T16:21:40.283Z,7.60
2023-01-18T16:24:20.669Z,8.57
2023-01-18T16:26:48.694Z,6.72
2023-01-18T16:29:16.786Z,7.68
2023-01-18T16:31:46.366Z,9.90
2023-01-18T16:34:23.681Z,8.27
2023-01-18T16:36:53.030Z,6.57
2023-01-18T16:39:23.276Z,7.50
2023-01-18T16:41:54.593Z,9.15
2023-01-18T16:44:22.729Z,7.45
2023-01-18T16:46:53.823Z,8.27
2023-01-18T16:49:21.818Z,8.00
2023-01-18T16:51:50.724Z,8.77
2023-01-18T16:54:20.037Z,8.45
2023-01-18T16:56:48.436Z,7.38
2023-01-18T16:59:18.206Z,7.97
2023-01-18T17:01:46.992Z,8.30
2023-01-18T17:04:16.911Z,7.57
2023-01-18T17:06:45.535Z,7.80
2023-01-18T17:09:21.214Z,9.00
2023-01-18T17:11:49.869Z,7.90
2023-01-18T17:14:18.212Z,8.88
2023-01-18T17:16:47.514Z,8.45
2023-01-18T17:19:19.568Z,8.85
2023-01-18T17:21:48.459Z,8.05
2023-01-18T17:24:17.459Z,8.43
2023-01-18T17:26:45.318Z,8.23
2023-01-18T17:29:18.088Z,8.45
2023-01-18T17:31:52.167Z,8.45
2023-01-18T17:34:27.993Z,9.32
2023-01-18T17:36:57.221Z,9.05
2023-01-18T17:39:32.079Z,8.93
2023-01-18T17:42:14.292Z,8.35
2023-01-18T17:44:47.135Z,10.15
2023-01-18T17:47:16.072Z,10.38
2023-01-18T17:49:45.207Z,9.30
2023-01-18T17:52:13.151Z,10.57
2023-01-18T17:54:40.929Z,9.20
2023-01-18T17:57:11.265Z,9.70
2023-01-18T17:59:39.149Z,10.02
2023-01-18T18:02:09.369Z,10.30
2023-01-18T18:04:37.398Z,9.45
2023-01-18T18:07:06.610Z,8.90
2023-01-18T18:09:38.679Z,8.95
2023-01-18T18:12:07.453Z,9.07
2023-01-18T18:14:35.414Z,8.10
2023-01-18T18:17:03.390Z,9.98
2023-01-18T18:19:32.318Z,10.43
2023-01-18T18:22:00.227Z,9.57
2023-01-18T18:24:29.456Z,8.85
2023-01-18T18:26:57.293Z,9.55
2023-01-18T18:29:25.095Z,9.63
2023-01-18T18:31:53.168Z,9.43
2023-01-18T18:34:20.964Z,7.90
2023-01-18T18:36:48.781Z,8.63
2023-01-18T18:39:16.627Z,9.98
2023-01-18T18:41:46.979Z,11.15
2023-01-18T18:44:14.939Z,8.27
2023-01-18T18:46:43.032Z,9.95
2023-01-18T18:49:10.994Z,10.10
2023-01-18T18:51:38.881Z,8.48
2023-01-18T18:54:07.212Z,9.48
2023-01-18T18:56:35.113Z,8.55
2023-01-18T18:59:04.510Z,10.02
2023-01-18T19:01:32.539Z,8.43
2023-01-18T19:04:00.851Z,7.97
2023-01-18T19:06:29.043Z,9.60
2023-01-18T19:08:57.319Z,10.18
2023-01-18T19:11:25.206Z,21.63
2023-01-18T19:13:55.876Z,24.73
2023-01-18T19:16:25.300Z,38.85
2023-01-18T19:18:53.347Z,18.42
2023-01-18T19:21:21.306Z,14.98
2023-01-18T19:23:49.181Z,11.85
2023-01-18T19:26:18.204Z,10.93
2023-01-18T19:28:47.048Z,10.85
2023-01-18T19:31:15.044Z,9.38
2023-01-18T19:33:44.400Z,8.85
2023-01-18T19:36:15.349Z,8.82
2023-01-18T19:38:46.128Z,10.68
2023-01-18T19:41:15.220Z,8.88
2023-01-18T19:43:43.109Z,8.77
2023-01-18T19:46:13.382Z,8.63
2023-01-18T19:48:41.327Z,8.75
2023-01-18T19:51:21.095Z,12.15
2023-01-18T19:53:50.638Z,12.70
2023-01-18T19:56:18.547Z,11.05
2023-01-18T19:58:46.408Z,10.60
2023-01-18T20:01:30.205Z,7.47
2023-01-18T20:04:02.315Z,7.57
2023-01-18T20:06:31.535Z,18.15
2023-01-18T20:08:59.350Z,14.93
2023-01-18T20:11:27.184Z,11.30
2023-01-18T20:13:55.911Z,9.40
2023-01-18T20:16:24.531Z,10.35
2023-01-18T20:18:52.950Z,8.77
2023-01-18T20:21:21.463Z,9.93
2023-01-18T20:23:50.807Z,8.32
2023-01-18T20:26:31.090Z,10.32
2023-01-18T20:29:06.279Z,13.07
2023-01-18T20:31:34.615Z,12.23
2023-01-18T20:34:02.999Z,11.25
2023-01-18T20:36:31.054Z,11.18
2023-01-18T20:39:00.337Z,10.52
2023-01-18T20:41:28.150Z,10.25
2023-01-18T20:43:57.122Z,11.88
2023-01-18T20:46:25.226Z,9.07
2023-01-18T20:48:53.100Z,8.38
2023-01-18T20:51:23.582Z,7.65
2023-01-18T20:53:51.431Z,7.60
2023-01-18T20:56:29.186Z,9.00
2023-01-18T20:58:57.893Z,7.25
2023-01-18T21:01:31.528Z,7.38
2023-01-18T21:04:00.628Z,6.25
2023-01-18T21:06:29.308Z,6.75
2023-01-18T21:08:58.840Z,8.40
2023-01-18T21:11:28.760Z,6.80
2023-01-18T21:13:58.996Z,8.45
2023-01-18T21:16:27.699Z,7.15
2023-01-18T21:18:58.748Z,6.13
2023-01-18T21:21:29.553Z,7.07
2023-01-18T21:23:57.364Z,6.55
2023-01-18T21:26:25.263Z,7.57
2023-01-18T21:28:54.854Z,7.80
2023-01-18T21:31:23.416Z,7.38
2023-01-18T21:33:54.805Z,7.75
2023-01-18T21:36:23.022Z,6.65
2023-01-18T21:38:51.290Z,7.35
2023-01-18T21:41:36.475Z,7.20
2023-01-18T21:44:23.573Z,7.82
2023-01-18T21:46:54.598Z,7.10
2023-01-18T21:50:04.151Z,9.25
2023-01-18T21:52:46.720Z,7.25
2023-01-18T21:55:15.738Z,8.77
2023-01-18T21:57:43.848Z,7.78
2023-01-18T22:00:14.241Z,8.25
2023-01-18T22:02:42.156Z,7.57
2023-01-18T22:05:10.459Z,7.93
2023-01-18T22:07:38.433Z,6.80
2023-01-18T22:10:07.421Z,8.18
2023-01-18T22:12:38.853Z,8.48
2023-01-18T22:15:07.733Z,8.60
2023-01-18T22:17:36.863Z,8.32
2023-01-18T22:20:05.209Z,6.80
2023-01-18T22:22:32.940Z,7.50
2023-01-18T22:25:02.168Z,8.13
2023-01-18T22:27:30.208Z,7.93
2023-01-18T22:29:58.045Z,8.57
2023-01-18T22:32:25.834Z,6.53
2023-01-18T22:34:55.045Z,8.85
2023-01-18T22:37:23.434Z,9.25
2023-01-18T22:39:51.671Z,7.93
2023-01-18T22:42:19.521Z,7.47
2023-01-18T22:44:47.428Z,7.10
2023-01-18T22:47:15.451Z,7.53
2023-01-18T22:49:43.360Z,7.80
2023-01-18T22:52:12.456Z,7.63
2023-01-18T22:54:40.293Z,7.95
2023-01-18T22:57:08.092Z,7.78
2023-01-18T22:59:36.060Z,8.13
2023-01-18T23:02:03.862Z,8.60
2023-01-18T23:04:33.935Z,8.65
2023-01-18T23:07:01.799Z,8.98
2023-01-18T23:09:31.237Z,8.45
2023-01-18T23:11:59.070Z,8.55
2023-01-18T23:14:44.336Z,8.18
2023-01-18T23:17:30.613Z,8.63
2023-01-18T23:19:58.518Z,7.18
2023-01-18T23:22:26.334Z,8.23
2023-01-18T23:24:55.568Z,7.70
2023-01-18T23:27:23.988Z,8.50
2023-01-18T23:29:56.672Z,8.65
2023-01-18T23:32:27.229Z,8.70
2023-01-18T23:34:55.308Z,7.10
2023-01-18T23:37:23.169Z,9.52
2023-01-18T23:40:08.667Z,7.53
2023-01-18T23:42:55.373Z,6.93
2023-01-18T23:45:40.653Z,8.07
2023-01-18T23:48:26.812Z,7.82
2023-01-18T23:51:12.133Z,7.07
2023-01-18T23:53:57.417Z,6.57
2023-01-18T23:56:25.286Z,6.72
2023-01-18T23:58:54.585Z,8.38
